createdAt,value
2018-05-23T00:01:30.561Z,48.80
2018-05-23T00:04:01.162Z,49.00
2018-05-23T00:06:31.048Z,49.60
2018-05-23T00:09:01.869Z,48.60
2018-05-23T00:11:33.496Z,49.80
2018-05-23T00:14:03.955Z,49.70
2018-05-23T00:16:34.774Z,49.30
2018-05-23T00:19:05.634Z,47.60
2018-05-23T00:21:36.265Z,49.30
2018-05-23T00:24:07.289Z,48.60
2018-05-23T00:26:37.163Z,49.50
2018-05-23T00:29:07.677Z,49.50
2018-05-23T00:31:38.071Z,48.60
2018-05-23T00:34:08.602Z,45.70
2018-05-23T00:36:38.509Z,47.10
2018-05-23T00:39:08.326Z,47.00
2018-05-23T00:41:38.570Z,47.50
2018-05-23T00:44:08.582Z,48.80
2018-05-23T00:46:39.813Z,49.40
2018-05-23T00:49:09.585Z,48.30
2018-05-23T00:51:39.728Z,48.10
2018-05-23T00:54:10.161Z,47.80
2018-05-23T00:56:40.495Z,46.00
2018-05-23T00:59:10.706Z,44.10
2018-05-23T01:01:41.745Z,40.80
2018-05-23T01:04:13.759Z,40.70
2018-05-23T01:06:47.911Z,40.00
2018-05-23T01:11:54.488Z,37.30
2018-05-23T01:14:25.482Z,36.40
2018-05-23T01:16:56.444Z,35.80
2018-05-23T01:19:27.467Z,35.80
2018-05-23T01:21:58.590Z,34.80
2018-05-23T01:24:28.633Z,34.80
2018-05-23T01:26:59.786Z,33.90
2018-05-23T01:29:30.932Z,33.40
2018-05-23T01:32:02.165Z,34.40
2018-05-23T01:34:32.349Z,33.70
2018-05-23T01:37:02.869Z,33.90
2018-05-23T01:39:33.640Z,34.10
2018-05-23T01:44:42.028Z,34.60
2018-05-23T01:47:15.390Z,33.70
2018-05-23T01:49:46.956Z,33.70
2018-05-23T01:52:18.133Z,33.80
2018-05-23T01:54:49.225Z,33.70
2018-05-23T01:57:20.448Z,33.40
2018-05-23T01:59:51.306Z,34.00
2018-05-23T02:02:23.451Z,33.90
2018-05-23T02:07:31.856Z,33.30
2018-05-23T02:10:06.989Z,33.90
2018-05-23T02:12:42.419Z,34.10
2018-05-23T02:17:53.590Z,35.20
2018-05-23T02:23:07.549Z,38.50
2018-05-23T02:25:38.289Z,41.40
2018-05-23T02:28:10.111Z,42.60
2018-05-23T02:30:40.676Z,42.50
2018-05-23T02:33:12.561Z,45.20
2018-05-23T02:35:44.780Z,45.20
2018-05-23T02:38:16.536Z,47.00
2018-05-23T02:43:23.639Z,47.10
2018-05-23T02:45:53.442Z,48.00
2018-05-23T02:48:25.257Z,47.70
2018-05-23T02:50:55.843Z,48.90
2018-05-23T02:53:25.622Z,48.80
2018-05-23T02:55:55.639Z,49.60
2018-05-23T02:58:25.404Z,50.50
2018-05-23T03:00:55.803Z,50.50
2018-05-23T03:03:25.791Z,50.50
2018-05-23T03:05:55.591Z,51.00
2018-05-23T03:08:25.651Z,52.40
2018-05-23T03:10:56.437Z,52.30
2018-05-23T03:13:29.016Z,52.90
2018-05-23T03:15:59.136Z,52.80
2018-05-23T03:18:30.753Z,53.90
2018-05-23T03:21:03.279Z,54.60
2018-05-23T03:26:12.005Z,56.80
2018-05-23T03:28:45.095Z,56.80
2018-05-23T03:31:16.533Z,57.60
2018-05-23T03:41:29.920Z,60.40
2018-05-23T03:44:01.423Z,60.40
2018-05-23T03:46:32.256Z,60.40
2018-05-23T03:49:02.143Z,61.00
2018-05-23T03:51:32.742Z,62.60
2018-05-23T03:54:02.545Z,62.50
2018-05-23T03:56:32.295Z,63.60
2018-05-23T03:59:02.080Z,63.00
2018-05-23T04:01:42.918Z,63.90
2018-05-23T04:04:23.943Z,64.90
2018-05-23T04:07:04.953Z,65.30
2018-05-23T04:09:34.946Z,65.00
2018-05-23T04:12:04.733Z,65.60
2018-05-23T04:14:34.566Z,64.70
2018-05-23T04:17:04.347Z,65.50
2018-05-23T04:19:34.437Z,66.10
2018-05-23T04:22:04.315Z,66.70
2018-05-23T04:24:35.375Z,67.00
2018-05-23T04:27:05.563Z,67.60
2018-05-23T04:29:36.455Z,65.30
2018-05-23T04:32:06.706Z,65.30
2018-05-23T04:34:37.926Z,64.90
2018-05-23T04:37:08.760Z,64.30
2018-05-23T04:39:39.156Z,63.00
2018-05-23T04:42:10.371Z,63.00
2018-05-23T04:44:41.589Z,62.80
2018-05-23T04:47:11.726Z,62.70
2018-05-23T04:49:42.663Z,62.70
2018-05-23T04:52:13.162Z,63.00
2018-05-23T04:54:43.919Z,62.70
2018-05-23T04:57:14.501Z,62.20
2018-05-23T04:59:45.722Z,62.20
2018-05-23T05:02:16.455Z,63.10
2018-05-23T05:04:47.154Z,63.10
2018-05-23T05:07:17.694Z,64.10
2018-05-23T05:09:48.508Z,64.30
2018-05-23T05:12:19.160Z,64.20
2018-05-23T05:14:49.396Z,63.70
2018-05-23T05:17:20.770Z,65.10
2018-05-23T05:19:51.779Z,65.90
2018-05-23T05:22:22.616Z,66.10
2018-05-23T05:24:53.217Z,66.80
2018-05-23T05:27:23.803Z,67.00
2018-05-23T05:29:55.936Z,67.10
2018-05-23T05:32:27.315Z,67.80
2018-05-23T05:34:58.677Z,68.30
2018-05-23T05:37:29.585Z,68.40
2018-05-23T05:40:01.015Z,67.20
2018-05-23T05:42:32.114Z,66.60
2018-05-23T05:45:03.556Z,66.40
2018-05-23T05:47:35.417Z,65.80
2018-05-23T05:50:06.239Z,65.80
2018-05-23T05:52:36.152Z,66.30
2018-05-23T05:55:05.892Z,65.80
2018-05-23T05:57:38.864Z,66.60
2018-05-23T06:00:08.753Z,66.30
2018-05-23T06:02:38.600Z,66.60
2018-05-23T06:05:09.082Z,66.70
2018-05-23T06:07:38.831Z,66.80
2018-05-23T06:10:09.431Z,67.30
2018-05-23T06:12:39.192Z,67.30
2018-05-23T06:15:09.046Z,67.20
2018-05-23T06:17:40.010Z,67.00
2018-05-23T06:20:10.648Z,67.30
2018-05-23T06:22:42.902Z,67.80
2018-05-23T06:25:13.849Z,67.40
2018-05-23T06:27:45.024Z,68.90
2018-05-23T06:30:15.092Z,68.70
2018-05-23T06:32:45.089Z,69.10
2018-05-23T06:35:15.057Z,69.40
2018-05-23T06:37:45.152Z,69.50
2018-05-23T06:40:14.965Z,69.90
2018-05-23T06:42:44.794Z,70.00
2018-05-23T06:45:14.532Z,70.70
2018-05-23T06:47:45.193Z,71.50
2018-05-23T06:50:14.973Z,71.60
2018-05-23T06:52:45.512Z,73.00
2018-05-23T06:55:15.558Z,72.50
2018-05-23T06:57:45.401Z,72.60
2018-05-23T07:00:15.409Z,74.10
2018-05-23T07:02:45.262Z,74.00
2018-05-23T07:05:15.020Z,73.90
2018-05-23T07:07:44.847Z,75.30
2018-05-23T07:10:14.779Z,75.20
2018-05-23T07:12:44.526Z,75.50
2018-05-23T07:15:14.367Z,75.50
2018-05-23T07:17:44.243Z,75.80
2018-05-23T07:20:14.846Z,77.30
2018-05-23T07:22:45.610Z,77.20
2018-05-23T07:25:15.342Z,76.60
2018-05-23T07:27:45.134Z,77.60
2018-05-23T07:30:15.759Z,78.50
2018-05-23T07:32:46.348Z,78.80
2018-05-23T07:35:16.075Z,78.70
2018-05-23T07:37:46.394Z,79.10
2018-05-23T07:40:17.120Z,79.60
2018-05-23T07:42:47.414Z,80.30
2018-05-23T07:45:17.615Z,80.30
2018-05-23T07:47:48.717Z,80.70
2018-05-23T07:50:19.474Z,81.00
2018-05-23T07:52:49.278Z,81.00
2018-05-23T07:55:19.113Z,81.50
2018-05-23T07:57:49.017Z,81.70
2018-05-23T08:00:18.846Z,82.20
2018-05-23T08:02:49.429Z,82.40
2018-05-23T08:05:19.245Z,82.30
2018-05-23T08:07:48.978Z,82.60
2018-05-23T08:10:18.718Z,82.90
2018-05-23T08:12:49.283Z,82.30
2018-05-23T08:15:19.075Z,83.00
2018-05-23T08:17:48.866Z,83.50
2018-05-23T08:20:19.517Z,82.50
2018-05-23T08:22:49.245Z,82.50
2018-05-23T08:25:19.105Z,82.50
2018-05-23T08:27:48.859Z,82.90
2018-05-23T08:30:19.385Z,83.00
2018-05-23T08:32:49.187Z,83.00
2018-05-23T08:35:20.677Z,83.40
2018-05-23T08:37:50.444Z,83.40
2018-05-23T08:40:20.261Z,83.90
2018-05-23T08:42:51.955Z,83.70
2018-05-23T08:45:22.213Z,83.70
2018-05-23T08:47:52.812Z,84.40
2018-05-23T08:50:23.748Z,84.40
2018-05-23T08:52:54.110Z,84.70
2018-05-23T08:55:24.959Z,84.70
2018-05-23T08:57:56.311Z,84.90
2018-05-23T09:00:26.339Z,84.20
2018-05-23T09:02:56.838Z,84.00
2018-05-23T09:05:27.279Z,84.00
2018-05-23T09:07:58.140Z,83.10
2018-05-23T09:10:28.236Z,83.20
2018-05-23T09:12:58.626Z,83.00
2018-05-23T09:15:28.585Z,82.70
2018-05-23T09:17:59.051Z,83.40
2018-05-23T09:20:30.649Z,83.40
2018-05-23T09:23:01.974Z,82.40
2018-05-23T09:25:33.302Z,82.60
2018-05-23T09:28:03.159Z,82.30
2018-05-23T09:30:32.937Z,83.20
2018-05-23T09:33:02.635Z,83.00
2018-05-23T09:35:32.469Z,83.30
2018-05-23T09:38:02.931Z,83.10
2018-05-23T09:40:33.438Z,83.40
2018-05-23T09:43:03.247Z,83.40
2018-05-23T09:45:32.997Z,84.60
2018-05-23T09:48:02.796Z,85.50
2018-05-23T09:50:32.565Z,84.80
2018-05-23T09:53:02.293Z,84.80
2018-05-23T09:55:32.066Z,84.80
2018-05-23T09:58:01.828Z,85.50
2018-05-23T10:00:33.101Z,85.60
2018-05-23T10:03:03.683Z,85.50
2018-05-23T10:05:33.425Z,85.90
2018-05-23T10:08:04.963Z,85.60
2018-05-23T10:10:35.459Z,85.10
2018-05-23T10:13:05.291Z,85.30
2018-05-23T10:15:35.112Z,85.40
2018-05-23T10:18:04.867Z,85.50
2018-05-23T10:20:34.613Z,85.30
2018-05-23T10:23:05.364Z,86.30
2018-05-23T10:25:35.785Z,85.30
2018-05-23T10:28:06.426Z,86.00
2018-05-23T10:30:37.499Z,85.30
2018-05-23T10:33:07.804Z,85.50
2018-05-23T10:35:38.325Z,85.20
2018-05-23T10:38:09.711Z,85.70
2018-05-23T10:40:41.151Z,85.30
2018-05-23T10:43:11.780Z,85.30
2018-05-23T10:45:41.512Z,85.20
2018-05-23T10:48:11.343Z,85.30
2018-05-23T10:50:41.082Z,85.50
2018-05-23T10:53:10.872Z,85.90
2018-05-23T10:55:40.701Z,85.50
2018-05-23T10:58:10.471Z,85.70
2018-05-23T11:00:40.969Z,85.50
2018-05-23T11:03:10.775Z,85.50
2018-05-23T11:05:40.607Z,86.30
2018-05-23T11:08:10.384Z,86.20
2018-05-23T11:10:40.155Z,85.20
2018-05-23T11:13:09.927Z,85.20
2018-05-23T11:15:39.821Z,85.70
2018-05-23T11:18:09.685Z,85.30
2018-05-23T11:20:40.202Z,85.30
2018-05-23T11:23:10.789Z,85.50
2018-05-23T11:25:40.780Z,86.20
2018-05-23T11:28:11.294Z,85.30
2018-05-23T11:30:41.794Z,85.00
2018-05-23T11:33:11.554Z,84.90
2018-05-23T11:35:41.347Z,85.00
2018-05-23T11:38:11.883Z,84.40
2018-05-23T11:40:42.384Z,84.80
2018-05-23T11:43:12.234Z,84.80
2018-05-23T11:45:42.124Z,84.80
2018-05-23T11:48:12.652Z,85.40
2018-05-23T11:50:43.218Z,85.40
2018-05-23T11:53:12.953Z,84.70
2018-05-23T11:55:42.738Z,84.60
2018-05-23T11:58:12.628Z,85.60
2018-05-23T12:00:42.362Z,85.90
2018-05-23T12:03:12.138Z,86.20
2018-05-23T12:05:41.876Z,86.00
2018-05-23T12:08:12.502Z,86.70
2018-05-23T12:10:42.347Z,86.20
2018-05-23T12:13:12.960Z,86.80
2018-05-23T12:15:42.722Z,86.80
2018-05-23T12:18:12.517Z,86.60
2018-05-23T12:20:42.283Z,86.60
2018-05-23T12:23:12.124Z,86.70
2018-05-23T12:25:41.863Z,86.70
2018-05-23T12:28:11.589Z,86.80
2018-05-23T12:30:41.381Z,87.70
2018-05-23T12:33:11.111Z,87.70
2018-05-23T12:35:40.884Z,88.00
2018-05-23T12:38:10.666Z,88.40
2018-05-23T12:40:40.420Z,88.20
2018-05-23T12:43:10.223Z,88.30
2018-05-23T12:45:39.990Z,88.10
2018-05-23T12:48:10.728Z,88.50
2018-05-23T12:50:41.225Z,88.30
2018-05-23T12:53:11.005Z,88.30
2018-05-23T12:55:40.710Z,87.70
2018-05-23T12:58:10.630Z,87.40
2018-05-23T13:00:40.366Z,88.10
2018-05-23T13:03:10.188Z,87.70
2018-05-23T13:05:40.027Z,87.60
2018-05-23T13:08:11.776Z,90.40
2018-05-23T13:10:43.156Z,90.90
2018-05-23T13:13:14.019Z,91.00
2018-05-23T13:15:44.559Z,91.40
2018-05-23T13:18:15.280Z,90.00
2018-05-23T13:20:45.916Z,89.20
2018-05-23T13:23:16.870Z,90.00
2018-05-23T13:25:47.724Z,90.50
2018-05-23T13:28:18.629Z,89.40
2018-05-23T13:30:48.781Z,88.30
2018-05-23T13:33:18.776Z,87.90
2018-05-23T13:35:48.963Z,87.30
2018-05-23T13:38:18.756Z,86.50
2018-05-23T13:40:48.692Z,87.30
2018-05-23T13:43:18.576Z,86.10
2018-05-23T13:45:48.363Z,86.30
2018-05-23T13:48:18.471Z,85.90
2018-05-23T13:50:48.655Z,86.50
2018-05-23T13:53:18.559Z,86.50
2018-05-23T13:55:48.334Z,85.90
2018-05-23T13:58:18.097Z,86.90
2018-05-23T14:00:48.387Z,85.00
2018-05-23T14:03:18.176Z,84.90
2018-05-23T14:05:47.991Z,85.40
2018-05-23T14:08:17.808Z,84.80
2018-05-23T14:10:48.633Z,84.80
2018-05-23T14:13:18.392Z,84.10
2018-05-23T14:15:48.969Z,82.20
2018-05-23T14:18:20.729Z,83.20
2018-05-23T14:20:51.987Z,83.30
2018-05-23T14:23:22.626Z,82.20
2018-05-23T14:25:52.397Z,82.20
2018-05-23T14:28:22.205Z,81.50
2018-05-23T14:30:52.046Z,81.40
2018-05-23T14:33:21.738Z,82.30
2018-05-23T14:35:51.536Z,81.80
2018-05-23T14:38:21.251Z,80.80
2018-05-23T14:40:51.327Z,78.80
2018-05-23T14:43:21.172Z,76.90
2018-05-23T14:45:51.019Z,77.20
2018-05-23T14:48:20.823Z,75.60
2018-05-23T14:50:50.675Z,74.90
2018-05-23T14:53:20.424Z,71.90
2018-05-23T14:55:50.175Z,70.40
2018-05-23T14:58:19.932Z,71.20
2018-05-23T15:00:49.755Z,71.70
2018-05-23T15:03:19.544Z,70.80
2018-05-23T15:05:50.484Z,68.80
2018-05-23T15:08:21.837Z,66.90
2018-05-23T15:10:53.383Z,65.70
2018-05-23T15:13:24.893Z,65.50
2018-05-23T15:15:55.979Z,65.50
2018-05-23T15:18:26.765Z,65.70
2018-05-23T15:20:57.439Z,65.90
2018-05-23T15:23:29.000Z,64.00
2018-05-23T15:25:59.516Z,65.70
2018-05-23T15:28:30.055Z,66.90
2018-05-23T15:31:00.680Z,66.80
2018-05-23T15:33:31.018Z,65.90
2018-05-23T15:36:02.017Z,67.00
2018-05-23T15:38:32.385Z,67.00
2018-05-23T15:41:03.174Z,67.10
2018-05-23T15:43:34.007Z,67.60
2018-05-23T15:46:03.737Z,66.30
2018-05-23T15:48:33.519Z,65.50
2018-05-23T15:51:03.331Z,67.00
2018-05-23T15:53:33.165Z,66.00
2018-05-23T15:56:02.889Z,65.90
2018-05-23T15:58:32.619Z,66.40
2018-05-23T16:01:04.545Z,66.80
2018-05-23T16:03:34.295Z,66.90
2018-05-23T16:06:04.802Z,66.70
2018-05-23T16:08:35.315Z,66.60
2018-05-23T16:11:06.396Z,67.80
2018-05-23T16:13:37.099Z,67.20
2018-05-23T16:16:07.899Z,66.40
2018-05-23T16:18:38.566Z,66.60
2018-05-23T16:21:09.398Z,66.80
2018-05-23T16:23:40.578Z,70.50
2018-05-23T16:26:10.401Z,70.00
2018-05-23T16:28:41.427Z,70.30
2018-05-23T16:31:12.171Z,70.90
2018-05-23T16:33:43.694Z,70.30
2018-05-23T16:36:14.872Z,70.30
2018-05-23T16:38:45.701Z,69.60
2018-05-23T16:41:17.161Z,69.40
2018-05-23T16:43:48.607Z,69.20
2018-05-23T16:46:20.568Z,67.50
2018-05-23T16:48:51.608Z,67.50
2018-05-23T16:51:22.513Z,68.90
2018-05-23T16:53:53.336Z,68.00
2018-05-23T16:56:23.693Z,65.10
2018-05-23T16:58:54.198Z,65.40
2018-05-23T17:01:24.929Z,64.90
2018-05-23T17:03:55.653Z,64.30
2018-05-23T17:06:26.269Z,64.40
2018-05-23T17:08:56.632Z,63.90
2018-05-23T17:11:27.568Z,65.10
2018-05-23T17:13:57.981Z,65.30
2018-05-23T17:16:28.252Z,66.30
2018-05-23T17:18:58.522Z,65.60
2018-05-23T17:21:28.894Z,66.50
2018-05-23T17:23:59.190Z,66.10
2018-05-23T17:26:29.365Z,66.90
2018-05-23T17:29:00.368Z,65.30
2018-05-23T17:31:30.468Z,65.20
2018-05-23T17:34:00.799Z,65.10
2018-05-23T17:36:31.226Z,65.30
2018-05-23T17:39:02.284Z,63.80
2018-05-23T17:41:32.803Z,65.00
2018-05-23T17:44:03.049Z,64.60
2018-05-23T17:46:33.673Z,63.50
2018-05-23T17:49:04.320Z,63.20
2018-05-23T17:51:34.982Z,63.60
2018-05-23T17:54:07.164Z,62.70
2018-05-23T17:56:36.894Z,61.90
2018-05-23T17:59:07.230Z,63.20
2018-05-23T18:01:37.867Z,62.40
2018-05-23T18:04:07.677Z,61.90
2018-05-23T18:06:37.964Z,60.80
2018-05-23T18:09:08.220Z,60.50
2018-05-23T18:11:38.661Z,61.00
2018-05-23T18:14:09.090Z,62.30
2018-05-23T18:16:39.602Z,61.70
2018-05-23T18:19:09.929Z,61.20
2018-05-23T18:21:40.240Z,60.40
2018-05-23T18:24:10.739Z,60.30
2018-05-23T18:26:41.089Z,58.50
2018-05-23T18:29:11.437Z,59.70
2018-05-23T18:31:41.956Z,59.40
2018-05-23T18:34:11.967Z,59.70
2018-05-23T18:36:42.402Z,58.80
2018-05-23T18:39:13.242Z,58.90
2018-05-23T18:41:43.463Z,58.40
2018-05-23T18:44:13.886Z,57.60
2018-05-23T18:46:44.623Z,58.50
2018-05-23T18:49:14.983Z,57.50
2018-05-23T18:51:45.484Z,56.00
2018-05-23T18:54:15.937Z,55.80
2018-05-23T18:56:47.566Z,57.40
2018-05-23T18:59:17.891Z,56.70
2018-05-23T19:01:48.274Z,55.60
2018-05-23T19:04:19.018Z,56.90
2018-05-23T19:06:50.308Z,56.70
2018-05-23T19:09:21.550Z,56.20
2018-05-23T19:11:52.985Z,57.80
2018-05-23T19:14:23.698Z,57.90
2018-05-23T19:16:54.261Z,59.10
2018-05-23T19:19:24.483Z,57.90
2018-05-23T19:21:54.982Z,58.50
2018-05-23T19:24:25.259Z,56.80
2018-05-23T19:26:55.644Z,55.60
2018-05-23T19:29:26.048Z,54.50
2018-05-23T19:31:56.722Z,56.20
2018-05-23T19:34:27.186Z,55.10
2018-05-23T19:36:58.254Z,54.40
2018-05-23T19:39:28.787Z,54.40
2018-05-23T19:41:59.224Z,55.10
2018-05-23T19:44:29.679Z,54.30
2018-05-23T19:47:00.488Z,54.40
2018-05-23T19:49:30.914Z,51.70
2018-05-23T19:52:01.167Z,52.70
2018-05-23T19:54:31.505Z,52.10
2018-05-23T19:57:02.085Z,52.80
2018-05-23T19:59:32.602Z,53.00
2018-05-23T20:02:03.362Z,51.80
2018-05-23T20:04:33.218Z,51.60
2018-05-23T20:07:04.506Z,51.50
2018-05-23T20:09:34.261Z,51.50
2018-05-23T20:12:04.193Z,52.00
2018-05-23T20:14:34.036Z,51.10
2018-05-23T20:17:04.586Z,52.10
2018-05-23T20:19:34.449Z,53.10
2018-05-23T20:22:04.999Z,51.50
2018-05-23T20:24:35.779Z,49.70
2018-05-23T20:27:06.416Z,50.50
2018-05-23T20:29:37.151Z,49.10
2018-05-23T20:32:07.689Z,50.40
2018-05-23T20:34:37.552Z,50.20
2018-05-23T20:37:08.077Z,49.90
2018-05-23T20:39:38.320Z,50.00
2018-05-23T20:42:08.867Z,51.20
2018-05-23T20:44:38.584Z,51.20
2018-05-23T20:47:09.341Z,50.70
2018-05-23T20:49:39.441Z,51.00
2018-05-23T20:52:09.656Z,50.80
2018-05-23T20:54:40.035Z,50.70
2018-05-23T20:57:11.269Z,51.50
2018-05-23T20:59:41.050Z,50.70
2018-05-23T21:02:10.863Z,49.20
2018-05-23T21:04:40.608Z,49.40
2018-05-23T21:07:10.392Z,49.80
2018-05-23T21:09:40.911Z,49.80
2018-05-23T21:12:11.645Z,49.80
2018-05-23T21:14:42.205Z,49.00
2018-05-23T21:17:12.108Z,49.60
2018-05-23T21:19:42.604Z,48.90
2018-05-23T21:22:13.450Z,45.60
2018-05-23T21:24:43.871Z,45.10
2018-05-23T21:27:13.667Z,46.30
2018-05-23T21:29:43.419Z,46.50
2018-05-23T21:32:13.183Z,45.20
2018-05-23T21:34:43.008Z,46.00
2018-05-23T21:37:12.792Z,43.50
2018-05-23T21:39:42.668Z,45.80
2018-05-23T21:42:12.438Z,45.30
2018-05-23T21:44:42.198Z,43.70
2018-05-23T21:47:11.923Z,43.40
2018-05-23T21:49:41.645Z,45.90
2018-05-23T21:52:11.501Z,43.70
2018-05-23T21:54:41.304Z,45.10
2018-05-23T21:57:11.226Z,43.90
2018-05-23T21:59:41.784Z,44.50
2018-05-23T22:02:11.544Z,44.40
2018-05-23T22:04:42.151Z,44.50
2018-05-23T22:07:12.019Z,44.50
2018-05-23T22:09:41.775Z,43.10
2018-05-23T22:12:11.636Z,43.80
2018-05-23T22:14:41.392Z,43.70
2018-05-23T22:17:12.033Z,43.20
2018-05-23T22:19:41.882Z,41.70
2018-05-23T22:22:11.633Z,42.70
2018-05-23T22:24:41.386Z,42.40
2018-05-23T22:27:11.133Z,42.00
2018-05-23T22:29:40.881Z,43.80
2018-05-23T22:32:10.650Z,44.20
2018-05-23T22:34:41.612Z,41.80
2018-05-23T22:37:11.832Z,43.20
2018-05-23T22:39:41.780Z,43.30
2018-05-23T22:42:11.465Z,43.90
2018-05-23T22:44:41.210Z,43.90
2018-05-23T22:47:11.020Z,44.30
2018-05-23T22:49:40.829Z,43.40
2018-05-23T22:52:10.598Z,43.90
2018-05-23T22:54:40.662Z,42.30
2018-05-23T22:57:12.425Z,41.40
2018-05-23T22:59:42.909Z,42.00
2018-05-23T23:02:12.665Z,40.20
2018-05-23T23:04:42.498Z,39.50
2018-05-23T23:07:12.289Z,38.80
2018-05-23T23:09:41.993Z,38.80
2018-05-23T23:12:11.811Z,37.90
2018-05-23T23:14:41.559Z,38.40
2018-05-23T23:17:13.900Z,39.20
2018-05-23T23:19:44.462Z,37.70
2018-05-23T23:25:16.532Z,37.20
2018-05-23T23:27:46.507Z,38.60
2018-05-23T23:30:16.339Z,38.80
2018-05-23T23:32:47.350Z,37.40
2018-05-23T23:35:17.336Z,37.80
2018-05-23T23:37:47.200Z,37.90
2018-05-23T23:40:17.832Z,40.20
2018-05-23T23:42:47.634Z,37.10
2018-05-23T23:45:17.383Z,38.60
2018-05-23T23:47:49.078Z,37.20
2018-05-23T23:50:19.456Z,37.20
2018-05-23T23:52:49.932Z,35.40
2018-05-23T23:55:19.671Z,35.20
2018-05-23T23:57:49.471Z,31.50
